createdAt,value
2023-05-19T00:00:31.257Z,2.57
2023-05-19T00:02:58.584Z,2.50
2023-05-19T00:05:25.644Z,2.30
2023-05-19T00:07:54.279Z,2.37
2023-05-19T00:10:21.628Z,2.33
2023-05-19T00:12:49.281Z,2.27
2023-05-19T00:15:16.684Z,2.47
2023-05-19T00:17:43.506Z,2.00
2023-05-19T00:20:12.105Z,2.73
2023-05-19T00:22:39.117Z,2.30
2023-05-19T00:25:06.951Z,2.40
2023-05-19T00:27:34.002Z,2.50
2023-05-19T00:30:01.062Z,2.50
2023-05-19T00:32:27.821Z,2.50
2023-05-19T00:34:54.945Z,1.93
2023-05-19T00:37:21.949Z,2.40
2023-05-19T00:39:48.911Z,2.07
2023-05-19T00:42:16.106Z,2.30
2023-05-19T00:44:43.196Z,2.57
2023-05-19T00:47:10.247Z,2.50
2023-05-19T00:49:37.025Z,2.30
2023-05-19T00:52:06.986Z,1.90
2023-05-19T00:54:36.938Z,2.13
2023-05-19T00:57:04.598Z,2.37
2023-05-19T00:59:31.418Z,2.33
2023-05-19T01:01:58.697Z,2.47
2023-05-19T01:04:26.622Z,2.37
2023-05-19T01:06:55.246Z,2.33
2023-05-19T01:09:23.004Z,2.27
2023-05-19T01:11:53.672Z,2.40
2023-05-19T01:14:21.473Z,2.17
2023-05-19T01:17:05.622Z,2.40
2023-05-19T01:19:55.092Z,2.27
2023-05-19T01:22:55.289Z,2.37
2023-05-19T01:25:58.230Z,2.30
2023-05-19T01:29:06.099Z,2.20
2023-05-19T01:31:34.390Z,2.17
2023-05-19T01:34:02.217Z,2.57
2023-05-19T01:36:30.191Z,2.23
2023-05-19T01:38:58.584Z,2.60
2023-05-19T01:41:26.655Z,2.20
2023-05-19T01:43:54.552Z,2.50
2023-05-19T01:46:21.932Z,2.50
2023-05-19T01:48:49.140Z,2.73
2023-05-19T01:51:16.102Z,2.60
2023-05-19T01:53:43.227Z,2.57
2023-05-19T01:56:10.402Z,2.50
2023-05-19T01:58:50.011Z,2.50
2023-05-19T02:01:19.512Z,2.07
2023-05-19T02:04:32.664Z,2.13
2023-05-19T02:07:28.975Z,2.20
2023-05-19T02:10:09.115Z,2.40
2023-05-19T02:12:38.450Z,2.50
2023-05-19T02:15:34.097Z,2.03
2023-05-19T02:18:04.625Z,2.10
2023-05-19T02:20:32.341Z,2.30
2023-05-19T02:22:59.298Z,2.73
2023-05-19T02:25:26.548Z,2.23
2023-05-19T02:27:54.594Z,3.10
2023-05-19T02:30:21.389Z,2.83
2023-05-19T02:32:48.224Z,2.40
2023-05-19T02:35:15.288Z,2.73
2023-05-19T02:37:42.061Z,2.73
2023-05-19T02:40:09.632Z,2.23
2023-05-19T02:42:36.485Z,2.53
2023-05-19T02:45:05.302Z,2.50
2023-05-19T02:47:33.183Z,2.60
2023-05-19T02:50:00.863Z,2.57
2023-05-19T02:52:28.004Z,2.40
2023-05-19T02:54:54.784Z,2.20
2023-05-19T02:57:22.056Z,2.43
2023-05-19T02:59:48.832Z,2.80
2023-05-19T03:02:16.027Z,2.50
2023-05-19T03:04:43.162Z,3.00
2023-05-19T03:07:10.766Z,3.20
2023-05-19T03:09:37.946Z,2.60
2023-05-19T03:12:06.864Z,2.73
2023-05-19T03:14:34.715Z,2.77
2023-05-19T03:17:02.074Z,2.53
2023-05-19T03:19:29.165Z,2.60
2023-05-19T03:21:56.742Z,2.23
2023-05-19T03:24:23.513Z,2.47
2023-05-19T03:26:50.697Z,2.47
2023-05-19T03:29:17.725Z,2.63
2023-05-19T03:31:44.478Z,2.77
2023-05-19T03:34:11.292Z,2.97
2023-05-19T03:36:39.738Z,3.03
2023-05-19T03:39:07.176Z,2.50
2023-05-19T03:41:34.213Z,2.70
2023-05-19T03:44:01.820Z,3.00
2023-05-19T03:46:28.598Z,2.33
2023-05-19T03:48:55.471Z,2.57
2023-05-19T03:51:22.455Z,2.50
2023-05-19T03:53:49.222Z,2.67
2023-05-19T03:56:18.377Z,2.53
2023-05-19T03:58:46.977Z,2.80
2023-05-19T04:01:13.761Z,2.80
2023-05-19T04:03:41.060Z,2.57
2023-05-19T04:06:08.307Z,2.87
2023-05-19T04:08:35.048Z,2.63
2023-05-19T04:11:01.893Z,3.10
2023-05-19T04:13:28.685Z,3.50
2023-05-19T04:15:56.317Z,3.60
2023-05-19T04:18:23.111Z,2.97
2023-05-19T04:20:50.122Z,2.73
2023-05-19T04:23:16.927Z,2.73
2023-05-19T04:25:43.914Z,2.70
2023-05-19T04:28:10.897Z,3.10
2023-05-19T04:30:38.952Z,2.90
2023-05-19T04:33:05.843Z,2.50
2023-05-19T04:35:33.060Z,2.73
2023-05-19T04:38:00.312Z,3.17
2023-05-19T04:40:27.675Z,2.67
2023-05-19T04:42:54.385Z,2.80
2023-05-19T04:45:21.370Z,2.80
2023-05-19T04:47:48.589Z,3.13
2023-05-19T04:50:17.231Z,2.80
2023-05-19T04:52:45.666Z,3.10
2023-05-19T04:55:13.535Z,2.50
2023-05-19T04:57:40.361Z,2.60
2023-05-19T05:00:09.465Z,2.73
2023-05-19T05:02:37.370Z,2.50
2023-05-19T05:05:04.462Z,2.80
2023-05-19T05:07:32.491Z,3.10
2023-05-19T05:09:59.772Z,3.10
2023-05-19T05:12:26.798Z,2.90
2023-05-19T05:14:54.021Z,2.67
2023-05-19T05:17:21.587Z,2.10
2023-05-19T05:19:48.624Z,2.90
2023-05-19T05:22:16.172Z,2.40
2023-05-19T05:24:43.126Z,3.00
2023-05-19T05:27:10.307Z,3.33
2023-05-19T05:29:37.562Z,3.00
2023-05-19T05:32:04.532Z,2.40
2023-05-19T05:34:31.957Z,2.80
2023-05-19T05:36:58.952Z,2.67
2023-05-19T05:39:25.693Z,2.90
2023-05-19T05:41:52.474Z,2.90
2023-05-19T05:44:19.215Z,2.57
2023-05-19T05:46:46.206Z,2.40
2023-05-19T05:49:13.815Z,2.93
2023-05-19T05:51:42.898Z,2.50
2023-05-19T05:54:12.790Z,2.77
2023-05-19T05:56:41.428Z,2.87
2023-05-19T05:59:08.214Z,2.83
2023-05-19T06:01:36.539Z,2.50
2023-05-19T06:04:03.547Z,2.50
2023-05-19T06:06:31.374Z,2.60
2023-05-19T06:08:58.465Z,2.63
2023-05-19T06:11:25.220Z,2.80
2023-05-19T06:13:52.199Z,2.73
2023-05-19T06:16:19.236Z,2.30
2023-05-19T06:18:46.037Z,2.33
2023-05-19T06:21:13.566Z,2.70
2023-05-19T06:23:41.359Z,2.50
2023-05-19T06:26:08.136Z,2.57
2023-05-19T06:28:34.928Z,2.10
2023-05-19T06:31:01.794Z,2.07
2023-05-19T06:33:29.277Z,2.50
2023-05-19T06:35:56.436Z,2.30
2023-05-19T06:38:23.212Z,2.03
2023-05-19T06:40:50.177Z,2.10
2023-05-19T06:43:17.260Z,2.63
2023-05-19T06:45:43.994Z,2.20
2023-05-19T06:48:10.842Z,2.10
2023-05-19T06:50:37.680Z,2.20
2023-05-19T06:53:04.795Z,2.00
2023-05-19T06:55:32.188Z,2.50
2023-05-19T06:57:59.233Z,2.10
2023-05-19T07:00:26.001Z,2.10
2023-05-19T07:02:53.163Z,2.10
2023-05-19T07:05:20.134Z,1.88
2023-05-19T07:07:46.891Z,1.80
2023-05-19T07:10:13.889Z,1.88
2023-05-19T07:12:40.797Z,2.10
2023-05-19T07:15:07.738Z,2.38
2023-05-19T07:17:34.713Z,2.15
2023-05-19T07:20:01.681Z,2.25
2023-05-19T07:22:28.468Z,2.53
2023-05-19T07:24:57.349Z,2.00
2023-05-19T07:27:24.490Z,1.98
2023-05-19T07:29:51.240Z,1.80
2023-05-19T07:32:18.474Z,2.15
2023-05-19T07:34:45.356Z,1.90
2023-05-19T07:37:12.177Z,1.88
2023-05-19T07:39:38.938Z,1.98
2023-05-19T07:42:05.809Z,2.05
2023-05-19T07:44:32.633Z,2.10
2023-05-19T07:46:59.703Z,2.28
2023-05-19T07:49:26.685Z,2.20
2023-05-19T07:51:54.132Z,2.08
2023-05-19T07:54:21.635Z,1.90
2023-05-19T07:56:48.437Z,2.03
2023-05-19T07:59:16.047Z,1.90
2023-05-19T08:01:43.029Z,2.10
2023-05-19T08:04:13.201Z,1.98
2023-05-19T08:06:42.701Z,1.90
2023-05-19T08:09:09.913Z,2.08
2023-05-19T08:11:37.952Z,2.05
2023-05-19T08:14:04.833Z,2.28
2023-05-19T08:16:31.733Z,2.13
2023-05-19T08:19:48.609Z,1.90
2023-05-19T08:22:15.754Z,1.70
2023-05-19T08:24:43.354Z,1.85
2023-05-19T08:27:10.205Z,1.80
2023-05-19T08:29:38.255Z,1.80
2023-05-19T08:32:05.731Z,1.88
2023-05-19T08:34:32.896Z,1.58
2023-05-19T08:37:00.097Z,1.80
2023-05-19T08:39:27.637Z,2.00
2023-05-19T08:41:54.756Z,1.80
2023-05-19T08:44:22.037Z,1.77
2023-05-19T08:46:50.153Z,1.60
2023-05-19T08:49:24.900Z,1.83
2023-05-19T08:52:33.083Z,1.38
2023-05-19T08:55:09.711Z,1.75
2023-05-19T08:57:38.366Z,1.75
2023-05-19T09:00:10.177Z,1.80
2023-05-19T09:02:50.343Z,1.73
2023-05-19T09:05:26.287Z,2.13
2023-05-19T09:07:52.996Z,1.67
2023-05-19T09:10:19.858Z,1.50
2023-05-19T09:12:47.851Z,1.70
2023-05-19T09:15:19.083Z,1.73
2023-05-19T09:17:49.127Z,1.85
2023-05-19T09:20:20.456Z,1.50
2023-05-19T09:22:50.687Z,1.60
2023-05-19T09:25:24.228Z,1.80
2023-05-19T09:27:51.475Z,1.75
2023-05-19T09:30:18.514Z,1.70
2023-05-19T09:33:04.584Z,2.10
2023-05-19T09:35:31.531Z,1.60
2023-05-19T09:37:58.896Z,1.73
2023-05-19T09:40:28.450Z,1.80
2023-05-19T09:42:55.535Z,1.70
2023-05-19T09:45:22.270Z,1.75
2023-05-19T09:47:49.445Z,1.92
2023-05-19T09:50:17.005Z,1.90
2023-05-19T09:52:44.834Z,2.20
2023-05-19T09:55:13.179Z,1.50
2023-05-19T09:57:40.781Z,1.60
2023-05-19T10:00:14.672Z,1.50
2023-05-19T10:02:44.066Z,1.70
2023-05-19T10:05:13.504Z,1.83
2023-05-19T10:07:41.037Z,1.80
2023-05-19T10:10:14.174Z,1.63
2023-05-19T10:12:42.010Z,1.80
2023-05-19T10:15:13.804Z,2.60
2023-05-19T10:17:42.274Z,1.73
2023-05-19T10:20:14.346Z,1.73
2023-05-19T10:22:46.164Z,1.98
2023-05-19T10:25:18.594Z,2.03
2023-05-19T10:27:57.779Z,1.67
2023-05-19T10:30:31.187Z,1.60
2023-05-19T10:33:17.496Z,2.03
2023-05-19T10:39:37.857Z,1.92
2023-05-19T10:42:23.491Z,1.38
2023-05-19T10:45:05.583Z,1.63
2023-05-19T10:47:33.914Z,1.92
2023-05-19T10:50:06.811Z,1.73
2023-05-19T10:52:37.873Z,1.98
2023-05-19T10:55:08.703Z,1.73
2023-05-19T10:57:35.617Z,1.88
2023-05-19T11:00:25.695Z,1.73
2023-05-19T11:02:56.433Z,1.70
2023-05-19T11:05:29.617Z,1.92
2023-05-19T11:08:04.629Z,2.05
2023-05-19T11:10:32.150Z,1.60
2023-05-19T11:12:59.211Z,2.05
2023-05-19T11:15:30.450Z,1.73
2023-05-19T11:17:57.694Z,1.95
2023-05-19T11:20:27.143Z,1.73
2023-05-19T11:23:04.826Z,1.88
2023-05-19T11:25:46.923Z,1.88
2023-05-19T11:28:20.137Z,1.70
2023-05-19T11:30:52.020Z,1.88
2023-05-19T11:33:21.161Z,1.73
2023-05-19T11:35:50.365Z,1.90
2023-05-19T11:38:19.018Z,1.55
2023-05-19T11:40:47.651Z,1.80
2023-05-19T11:43:14.464Z,2.10
2023-05-19T11:45:41.592Z,2.05
2023-05-19T11:48:12.598Z,1.90
2023-05-19T11:50:42.100Z,2.00
2023-05-19T11:53:13.389Z,2.10
2023-05-19T11:55:47.701Z,2.20
2023-05-19T11:58:15.426Z,1.90
2023-05-19T12:00:46.364Z,2.40
2023-05-19T12:03:13.713Z,1.80
2023-05-19T12:05:46.846Z,2.05
2023-05-19T12:08:14.383Z,1.95
2023-05-19T12:10:41.747Z,1.98
2023-05-19T12:13:09.966Z,2.08
2023-05-19T12:15:37.719Z,2.30
2023-05-19T12:18:05.021Z,1.80
2023-05-19T12:20:32.733Z,2.00
2023-05-19T12:23:00.854Z,2.08
2023-05-19T12:25:32.712Z,2.05
2023-05-19T12:28:02.956Z,2.22
2023-05-19T12:30:31.684Z,1.90
2023-05-19T12:32:58.938Z,1.85
2023-05-19T12:35:33.544Z,2.10
2023-05-19T12:38:05.198Z,1.90
2023-05-19T12:40:37.911Z,2.07
2023-05-19T12:43:29.474Z,2.10
2023-05-19T12:45:56.532Z,2.23
2023-05-19T12:48:23.892Z,2.07
2023-05-19T12:50:54.280Z,2.30
2023-05-19T12:53:21.185Z,2.20
2023-05-19T12:55:47.940Z,2.23
2023-05-19T12:58:16.187Z,2.03
2023-05-19T13:00:45.257Z,2.30
2023-05-19T13:03:20.322Z,2.60
2023-05-19T13:05:49.285Z,2.60
2023-05-19T13:08:18.678Z,2.80
2023-05-19T13:10:47.382Z,2.60
2023-05-19T13:13:14.498Z,2.50
2023-05-19T13:15:46.689Z,2.30
2023-05-19T13:18:14.677Z,2.40
2023-05-19T13:20:42.836Z,2.53
2023-05-19T13:23:14.374Z,2.33
2023-05-19T13:25:41.665Z,2.33
2023-05-19T13:28:09.530Z,2.40
2023-05-19T13:30:43.388Z,2.37
2023-05-19T13:33:10.282Z,2.53
2023-05-19T13:35:37.925Z,2.40
2023-05-19T13:38:10.517Z,2.30
2023-05-19T13:40:38.025Z,2.83
2023-05-19T13:43:06.249Z,2.87
2023-05-19T13:45:33.286Z,2.27
2023-05-19T13:48:00.410Z,2.17
2023-05-19T13:50:27.300Z,2.50
2023-05-19T13:52:54.398Z,2.40
2023-05-19T13:55:21.438Z,2.23
2023-05-19T13:57:48.224Z,2.60
2023-05-19T14:00:15.866Z,2.70
2023-05-19T14:02:43.109Z,2.23
2023-05-19T14:05:10.442Z,3.13
2023-05-19T14:07:37.199Z,2.60
2023-05-19T14:10:06.795Z,2.30
2023-05-19T14:12:44.803Z,2.53
2023-05-19T14:15:21.949Z,2.57
2023-05-19T14:18:06.843Z,2.30
2023-05-19T14:20:34.784Z,2.20
2023-05-19T14:23:02.121Z,2.37
2023-05-19T14:25:34.101Z,2.27
2023-05-19T14:28:01.067Z,2.27
2023-05-19T14:30:27.867Z,2.40
2023-05-19T14:32:54.681Z,2.40
2023-05-19T14:35:22.109Z,2.70
2023-05-19T14:37:48.882Z,2.60
2023-05-19T14:40:15.825Z,2.60
2023-05-19T14:42:42.844Z,2.60
2023-05-19T14:45:10.173Z,2.60
2023-05-19T14:47:36.881Z,2.30
2023-05-19T14:50:04.052Z,2.57
2023-05-19T14:52:30.760Z,2.53
2023-05-19T14:54:57.572Z,2.40
2023-05-19T14:57:24.301Z,2.70
2023-05-19T14:59:51.167Z,2.40
2023-05-19T15:02:17.932Z,2.50
2023-05-19T15:04:45.409Z,2.30
2023-05-19T15:07:12.182Z,2.50
2023-05-19T15:09:38.924Z,2.60
2023-05-19T15:12:06.048Z,2.47
2023-05-19T15:14:32.999Z,2.63
2023-05-19T15:16:59.919Z,2.37
2023-05-19T15:19:27.293Z,2.43
2023-05-19T15:21:54.485Z,2.20
2023-05-19T15:24:21.580Z,2.17
2023-05-19T15:26:48.477Z,3.70
2023-05-19T15:29:15.540Z,2.70
2023-05-19T15:31:42.633Z,2.50
2023-05-19T15:34:09.515Z,2.50
2023-05-19T15:36:36.326Z,2.30
2023-05-19T15:39:04.064Z,2.70
2023-05-19T15:41:30.916Z,2.70
2023-05-19T15:44:00.243Z,2.63
2023-05-19T15:46:27.438Z,2.70
2023-05-19T15:48:54.497Z,2.63
2023-05-19T15:51:21.585Z,2.40
2023-05-19T15:53:48.929Z,2.53
2023-05-19T15:56:16.076Z,3.00
2023-05-19T15:58:43.837Z,6.90
2023-05-19T16:01:10.816Z,4.40
2023-05-19T16:03:37.835Z,3.87
2023-05-19T16:06:04.857Z,3.53
2023-05-19T16:08:31.608Z,2.40
2023-05-19T16:10:58.684Z,2.47
2023-05-19T16:13:25.483Z,2.13
2023-05-19T16:15:52.988Z,2.53
2023-05-19T16:18:19.845Z,2.30
2023-05-19T16:20:46.865Z,2.23
2023-05-19T16:23:13.563Z,2.23
2023-05-19T16:25:41.482Z,2.30
2023-05-19T16:28:08.916Z,2.70
2023-05-19T16:30:35.903Z,2.20
2023-05-19T16:33:02.940Z,2.30
2023-05-19T16:35:29.991Z,2.80
2023-05-19T16:37:56.835Z,3.30
2023-05-19T16:40:23.975Z,2.30
2023-05-19T16:42:53.525Z,2.50
2023-05-19T16:45:20.521Z,2.43
2023-05-19T16:47:47.254Z,2.70
2023-05-19T16:50:14.412Z,2.50
2023-05-19T16:52:41.268Z,2.80
2023-05-19T16:55:08.460Z,2.60
2023-05-19T16:57:35.536Z,2.63
2023-05-19T17:00:03.585Z,2.60
2023-05-19T17:02:32.456Z,2.30
2023-05-19T17:04:59.566Z,2.67
2023-05-19T17:07:29.052Z,2.20
2023-05-19T17:09:56.023Z,2.70
2023-05-19T17:12:23.174Z,2.23
2023-05-19T17:14:52.313Z,2.20
2023-05-19T17:17:19.180Z,2.40
2023-05-19T17:19:46.896Z,2.70
2023-05-19T17:22:13.760Z,2.50
2023-05-19T17:24:40.566Z,2.40
2023-05-19T17:27:12.328Z,2.63
2023-05-19T17:29:39.277Z,2.27
2023-05-19T17:32:06.889Z,2.23
2023-05-19T17:34:34.026Z,2.53
2023-05-19T17:37:01.340Z,2.00
2023-05-19T17:39:28.082Z,2.20
2023-05-19T17:41:54.827Z,2.30
2023-05-19T17:44:21.585Z,2.10
2023-05-19T17:46:48.507Z,2.20
2023-05-19T17:49:15.517Z,2.37
2023-05-19T17:51:42.546Z,2.63
2023-05-19T17:54:09.663Z,2.60
2023-05-19T17:56:42.448Z,2.40
2023-05-19T17:59:09.824Z,2.53
2023-05-19T18:01:37.040Z,2.30
2023-05-19T18:04:04.431Z,2.27
2023-05-19T18:06:32.207Z,2.60
2023-05-19T18:09:01.353Z,3.10
2023-05-19T18:11:28.690Z,2.40
2023-05-19T18:13:55.481Z,2.73
2023-05-19T18:16:22.592Z,2.50
2023-05-19T18:18:50.575Z,2.43
2023-05-19T18:21:18.289Z,2.77
2023-05-19T18:23:46.273Z,2.80
2023-05-19T18:26:13.786Z,2.40
2023-05-19T18:28:41.938Z,2.50
2023-05-19T18:31:15.645Z,2.53
2023-05-19T18:33:43.302Z,3.07
2023-05-19T18:36:10.147Z,2.70
2023-05-19T18:38:36.884Z,2.97
2023-05-19T18:41:06.165Z,2.60
2023-05-19T18:43:33.235Z,2.70
2023-05-19T18:46:00.163Z,3.10
2023-05-19T18:48:27.433Z,2.73
2023-05-19T18:50:54.398Z,3.50
2023-05-19T18:53:22.704Z,2.57
2023-05-19T18:55:49.807Z,4.27
2023-05-19T18:58:18.208Z,2.80
2023-05-19T19:00:45.011Z,3.00
2023-05-19T19:03:12.253Z,2.83
2023-05-19T19:05:39.640Z,3.33
2023-05-19T19:08:06.455Z,4.63
2023-05-19T19:10:34.898Z,3.80
2023-05-19T19:13:01.875Z,3.57
2023-05-19T19:15:28.974Z,2.83
2023-05-19T19:17:56.060Z,4.83
2023-05-19T19:20:22.956Z,3.47
2023-05-19T19:22:50.500Z,3.07
2023-05-19T19:25:17.308Z,2.87
2023-05-19T19:27:44.095Z,2.70
2023-05-19T19:30:11.050Z,2.87
2023-05-19T19:32:37.865Z,3.00
2023-05-19T19:35:05.050Z,3.10
2023-05-19T19:37:32.050Z,3.30
2023-05-19T19:39:58.811Z,2.87
2023-05-19T19:42:26.006Z,3.07
2023-05-19T19:44:56.105Z,3.47
2023-05-19T19:47:23.044Z,3.40
2023-05-19T19:49:49.812Z,3.03
2023-05-19T19:52:17.539Z,3.03
2023-05-19T19:54:44.316Z,3.13
2023-05-19T19:57:11.199Z,3.37
2023-05-19T19:59:38.217Z,2.80
2023-05-19T20:02:05.138Z,3.20
2023-05-19T20:04:32.605Z,3.20
2023-05-19T20:06:59.426Z,3.30
2023-05-19T20:09:26.195Z,3.27
2023-05-19T20:11:53.182Z,3.23
2023-05-19T20:14:19.932Z,3.20
2023-05-19T20:16:47.045Z,3.57
2023-05-19T20:19:14.198Z,3.20
2023-05-19T20:21:41.034Z,3.20
2023-05-19T20:24:08.123Z,3.53
2023-05-19T20:26:34.883Z,3.70
2023-05-19T20:29:01.905Z,3.37
2023-05-19T20:31:28.646Z,3.70
2023-05-19T20:33:55.463Z,3.47
2023-05-19T20:36:22.509Z,3.43
2023-05-19T20:38:49.241Z,2.83
2023-05-19T20:41:16.347Z,3.70
2023-05-19T20:43:43.907Z,3.30
2023-05-19T20:46:11.185Z,3.43
2023-05-19T20:48:38.376Z,3.43
2023-05-19T20:51:05.725Z,3.50
2023-05-19T20:53:32.477Z,3.53
2023-05-19T20:55:59.265Z,3.70
2023-05-19T20:58:30.449Z,3.77
2023-05-19T21:00:58.236Z,3.40
2023-05-19T21:03:26.758Z,3.83
2023-05-19T21:05:54.197Z,3.20
2023-05-19T21:08:21.338Z,3.60
2023-05-19T21:10:48.475Z,3.37
2023-05-19T21:13:15.715Z,3.80
2023-05-19T21:15:42.430Z,3.23
2023-05-19T21:18:11.433Z,3.30
2023-05-19T21:20:38.805Z,3.60
2023-05-19T21:23:06.045Z,3.60
2023-05-19T21:25:32.885Z,3.77
2023-05-19T21:27:59.984Z,3.87
2023-05-19T21:30:26.834Z,4.07
2023-05-19T21:32:53.726Z,4.37
2023-05-19T21:35:20.702Z,4.07
2023-05-19T21:37:47.813Z,3.70
2023-05-19T21:40:14.498Z,3.77
2023-05-19T21:42:41.634Z,4.20
2023-05-19T21:45:09.094Z,3.93
2023-05-19T21:47:36.026Z,3.90
2023-05-19T21:50:02.886Z,4.13
2023-05-19T21:52:30.256Z,4.63
2023-05-19T21:54:57.971Z,4.17
2023-05-19T21:57:24.727Z,4.57
2023-05-19T21:59:51.747Z,4.50
2023-05-19T22:02:18.758Z,4.63
2023-05-19T22:04:46.011Z,4.73
2023-05-19T22:07:12.812Z,4.13
2023-05-19T22:09:39.609Z,5.13
2023-05-19T22:12:07.377Z,5.17
2023-05-19T22:14:34.394Z,4.83
2023-05-19T22:17:01.472Z,4.73
2023-05-19T22:19:28.272Z,4.60
2023-05-19T22:22:01.854Z,4.87
2023-05-19T22:24:36.906Z,5.17
2023-05-19T22:27:04.127Z,5.10
2023-05-19T22:29:30.938Z,4.77
2023-05-19T22:31:57.952Z,5.30
2023-05-19T22:34:24.791Z,5.50
2023-05-19T22:36:51.539Z,6.07
2023-05-19T22:39:18.535Z,5.67
2023-05-19T22:41:45.559Z,5.83
2023-05-19T22:44:16.072Z,5.80
2023-05-19T22:46:44.542Z,5.37
2023-05-19T22:49:11.284Z,6.07
2023-05-19T22:51:39.598Z,6.67
2023-05-19T22:54:06.994Z,6.97
2023-05-19T22:56:33.954Z,5.90
2023-05-19T22:59:01.005Z,6.50
2023-05-19T23:01:27.817Z,6.37
2023-05-19T23:03:54.690Z,7.17
2023-05-19T23:06:22.471Z,6.60
2023-05-19T23:09:40.279Z,6.73
2023-05-19T23:12:07.431Z,6.80
2023-05-19T23:14:34.431Z,6.77
2023-05-19T23:17:01.499Z,7.40
2023-05-19T23:19:29.231Z,6.50
2023-05-19T23:21:56.127Z,7.00
2023-05-19T23:24:23.104Z,7.40
2023-05-19T23:26:49.911Z,7.23
2023-05-19T23:29:16.917Z,7.40
2023-05-19T23:31:44.785Z,7.23
2023-05-19T23:34:11.923Z,6.90
2023-05-19T23:36:39.012Z,6.80
2023-05-19T23:39:06.295Z,7.33
2023-05-19T23:41:33.065Z,6.53
2023-05-19T23:43:59.816Z,7.30
2023-05-19T23:46:27.071Z,7.20
2023-05-19T23:48:53.883Z,8.07
2023-05-19T23:51:20.828Z,7.43
2023-05-19T23:53:47.844Z,7.87
2023-05-19T23:56:14.664Z,7.87
2023-05-19T23:58:41.754Z,8.10
